United States > Florida

Riviera Beach, FL (33404)

9:02 AM EDT on July 07, 2015 (GMT -0400)
Gardenia Gardens | | Change Station
CLOSE
Current Station
Personal Weather Station
Location: Palm Beach Gardens, FL
Elevation: 7 ft
Nearby Weather Stations

Elev 7 ft 26.82 °N, 80.10 °W | Updated 1 minute ago

Thunderstorm
Thunderstorm
89.8 °F
Feels Like 103 °F
N
4.2
Wind Variable Wind from NNE

Today
High -- | Low -- °F
--% Chance of Precip.
Yesterday
High -- | Low -- °F
Precip. -- in
6:32 AM 8:17 PM
Waning Gibbous, 65% visible
Pressure 30.18 in
Visibility 7.0 miles
Clouds Scattered Clouds 2700 ft
Mostly Cloudy 3500 ft
Mostly Cloudy 25000 ft
Heat Index 103 °F
Dew Point 77 °F
Humidity 67%
Rainfall 0.00 in
Snow Depth Not available.
UV 2 out of 12
Pollen 4.20 out of 12
Air Quality Not available.
Flu Activity Not available.
METAR KPBI 071253Z 15006KT 7SM TS SCT027CB BKN035 BKN250 28/21 A3018 RMK AO2 SLP220 FRQ LTGICCG SE-SW TS SE-SW MOV NW T02830211 $

More Conditions Fewer Conditions

Pressure 30.18 in
Visibility 7.0 miles
Clouds Scattered Clouds 2700 ft
Mostly Cloudy 3500 ft
Mostly Cloudy 25000 ft
Heat Index 103 °F
Dew Point 77 °F
Humidity 67%
Rainfall 0.00 in
Snow Depth Not available.
UV 2 out of 12
Pollen 4.20 out of 12
Air Quality Not available.
Flu Activity Not available.
METAR KPBI 071253Z 15006KT 7SM TS SCT027CB BKN035 BKN250 28/21 A3018 RMK AO2 SLP220 FRQ LTGICCG SE-SW TS SE-SW MOV NW T02830211 $

More Conditions Fewer Conditions

10-Day Weather Forecast

×

Almanac

Astronomy

Jul. 07, 2015 Rise Set
Actual Time
Civil Twilight
Nautical Twilight
Astronomical Twilight
Moon
Length of Visible Light
Length of Day
Tomorrow will be .
, % of the Moon is Illuminated

Today's Extremes

State Highs State Lows

Community

WunderPhotos

Upload Photos

1,835,787 photos uploaded!

WunderBlogs® & News

Nearby

Air Quality

  Air Quality AQ Index Pollutant
Not available.

Snow Depth

Station Depth Elevation

Earthquake Activity

City Distance Mag. Time & Date
Minimum magnitude displayed is 2.5.

Coastal Water Temperatures

Place Temperature

Stations

Nearby Weather Stations

Station Location Temp. Windchill Dew Point Humidity Wind Precip. Elev Updated Type